x

Onslow Bay Outer, Nc (41036) Wave Buoy

4:50pm - Tue 22nd Jul 2014 All times are EDT. -4 hours from GMT.

  • Sig Wave height 3.6ft
  • Swell Direction
  • Peak Period 5s
  • Average Period 4s
  • Wind
    18mph, 20mph gusts
  • Sea Temp 81°f
  • Air Temp 79°f
  • Sea Pressure 1019.2mb
  • Onslow Bay Outer, Nc
  • Onslow Bay Outer, Nc

More Historic Weather Station data

Upgrade to MSW Pro to gain access to the past 30 days of data for over 8000 Wavebouys and Weather Stations around the globe.

Join Pro

Comparision Forecast

View Surf forecast
   
Tue 07/22 4:50pm 3.5ft 5s 4s 18 20 mph 1019.2mb 81f 79f
4:20pm  -   -   -  20 22 mph 1019.4mb 81f 79f
3:50pm 3.5ft 8s 4s 18 22 mph 1019.5mb 81f 78f
3:20pm  -   -   -  18 20 mph 1019.7mb 80f 78f
2:50pm 3ft 5s 4s 16 18 mph 1020.1mb 80f 78f
2:20pm  -   -   -  13 18 mph 1020.3mb 80f 78f
1:50pm 3.5ft 7s 5s 11 13 mph 1020.2mb 80f 78f
1:20pm  -   -   -  11 13 mph 1020.1mb 80f 78f
12:50pm 3.5ft 5s 5s 13 16 mph 1020.5mb 80f 77f
12:20pm  -   -   -  13 18 mph 1020.8mb 80f 78f
11:50am 3.5ft 8s 5s 13 16 mph 1021.1mb 80f 77f
11:20am  -   -   -  9
mph
1021.4mb 80f 77f
10:50am 3.5ft 8s 5s 9 11 mph 1021.3mb 80f 77f
10:20am  -   -   -  11 13 mph 1021.2mb 80f 77f
9:50am 3ft 6s 6s 9 11 mph 1021.3mb 80f 75f
9:20am  -   -   -  4
mph
1020.8mb 80f 78f
8:50am 3ft 8s 5s 7 9 mph 1020.6mb 80f 78f
8:20am  -   -   -  7
mph
1020.4mb 80f 78f
7:50am 3ft 7s 5s 9 11 mph 1020.3mb 80f 77f
7:20am  -   -   -  11 13 mph 1019.9mb 80f 78f
6:50am 3.5ft 8s 5s 7
mph
1019.9mb 80f 77f
6:20am  -   -   -  7 9 mph 1019.8mb 80f 75f
5:50am 3ft 8s 5s 11 13 mph 1019.3mb 80f 75f
5:20am  -   -   -  2
mph
1018.9mb 80f 79f
4:50am 3.5ft 5s 5s 4
mph
1019.2mb 80f 79f
4:20am  -   -   -  7 9 mph 1019mb 81f 79f
3:50am 3.5ft 7s 5s 9
mph
1019.1mb 81f 79f
3:20am  -   -   -  9 11 mph 1019.2mb 81f 80f
2:50am 3.5ft 7s 5s 9 11 mph 1019.2mb 81f 79f
2:20am  -   -   -  11 13 mph 1019.4mb 81f 79f
1:50am 3.5ft 8s 5s 11 13 mph 1019.5mb 81f 80f
1:20am  -   -   -  13 16 mph 1019.8mb 80f 80f
12:50am 3.5ft 7s 5s 13 16 mph 1019.9mb 80f 80f
12:20am  -   -   -  9 11 mph 1020.2mb 81f 80f
Mon 07/21 11:50pm 3ft 6s 5s 11 13 mph 1020.2mb 81f 80f
11:20pm  -   -   -  13
mph
1020.2mb 81f 80f
10:50pm 3ft 8s 5s 11 13 mph 1020mb 81f 80f
10:20pm  -   -   -  11 13 mph 1020.1mb 81f 79f
9:50pm 3ft 8s 5s 13 16 mph 1020.1mb 81f 79f
9:20pm  -   -   -  13 16 mph 1020mb 81f 79f
8:50pm 3ft 8s 5s 13 16 mph 1019.8mb 81f 79f
8:20pm  -   -   -  16 18 mph 1019.8mb 81f 79f
7:50pm 3.5ft 8s 5s 13 16 mph 1019.9mb 81f 79f
7:20pm  -   -   -  13 16 mph 1019.9mb 81f 79f
6:50pm 2.5ft 8s 5s 11 16 mph 1019.6mb 81f 78f
6:20pm  -   -   -  11 13 mph 1019.7mb 81f 78f
5:50pm 3ft 7s 5s 11 13 mph 1019.5mb 81f 78f
5:20pm  -   -   -  11 13 mph 1019.8mb 81f 78f
4:50pm 3ft 8s 5s 13 16 mph 1019.7mb 81f 77f
4:20pm  -   -   -  9 13 mph 1019.9mb 81f 78f
3:50pm 3ft 8s 6s 11
mph
1020mb 81f 79f
3:20pm  -   -   -  9 11 mph 1019.8mb 81f 79f
2:50pm 2.5ft 8s 5s 11 13 mph 1020mb 81f 79f
2:20pm  -   -   -  13 16 mph 1020.2mb 81f 80f
1:50pm 3ft 7s 5s 4 9 mph 1020.2mb 81f 80f
1:20pm  -   -   -  7 9 mph 1020.5mb 81f 80f
12:50pm 3ft 7s 6s 7 11 mph 1020.6mb 81f 81f
12:20pm  -   -   -  9 11 mph 1020.5mb 81f 81f
11:50am 3ft 7s 6s 9 11 mph 1020.5mb 81f 81f
11:20am  -   -   -  11 13 mph 1020.2mb 81f 81f
10:50am 3.5ft 8s 6s 11 13 mph 1020.1mb 81f 81f
10:20am  -   -   -  9
mph
1020.1mb 81f 81f
9:50am 3ft 8s 6s 9 11 mph 1019.8mb 81f 81f
9:20am  -   -   -  7 9 mph 1020.1mb 80f 81f
8:50am 3ft 7s 6s 9
mph
1020.1mb 81f 81f
8:20am  -   -   -  9
mph
1020mb 81f 81f
7:50am 3ft 8s 6s 7
mph
1019.7mb 81f 81f
7:20am  -   -   -  7
mph
1019.7mb 81f 81f
6:50am 3ft 8s 7s 4 7 mph 1019.2mb 81f 81f
6:20am  -   -   -  4
mph
1018.9mb 81f 81f
5:50am 3.5ft 8s 7s 4
mph
1018.8mb 81f 81f
5:20am  -   -   -  2
mph
1018.7mb 81f 80f
4:50am 3ft 8s 7s 2
mph
1018.5mb 81f 81f
4:20am  -   -   -  2
mph
1018.3mb 81f 81f
3:50am 3.5ft 8s 7s 2 4 mph 1018.3mb 81f 81f
3:20am  -   -   -  2 4 mph 1018.3mb 81f 81f
2:50am 3.5ft 7s 7s 4
mph
1018.7mb 81f 81f
2:20am  -   -   -  7
mph
1018.9mb 81f 81f
1:50am 3.5ft 8s 7s 7
mph
1019.1mb 81f 81f
1:20am  -   -   -  4 7 mph 1019.3mb 81f 81f
12:50am 4ft 8s 7s 4
mph
1019.5mb 81f 81f
12:20am  -   -   -  4
mph
1019.6mb 81f 81f
Sun 07/20 11:50pm 3.5ft 8s 6s 4
mph
1019.7mb 81f 81f
11:20pm  -   -   -  4 7 mph 1019.6mb 81f 81f
10:50pm 3.5ft 8s 6s 7 9 mph 1019.5mb 81f 81f
10:20pm  -   -   -  7 9 mph 1019.4mb 81f 81f
9:50pm 4ft 8s 7s 9 11 mph 1019.2mb 81f 81f
9:20pm  -   -   -  7 9 mph 1019.2mb 81f 81f
8:50pm 3.5ft 8s 7s 9 11 mph 1018.7mb 81f 81f
8:20pm  -   -   -  9 13 mph 1018.5mb 82f 81f
7:50pm 3.5ft 8s 7s 11 13 mph 1018.3mb 82f 80f
7:20pm  -   -   -  11
mph
1018.4mb 82f 80f
6:50pm 3.5ft 8s 7s 9 11 mph 1018.5mb 82f 80f
6:20pm  -   -   -  9 11 mph 1018.6mb 82f 80f
5:50pm 3.5ft 8s 7s 9
mph
1018.7mb 82f 80f
5:20pm  -   -   -  9 11 mph 1018.9mb 82f 80f
4:50pm 3.5ft 8s 7s 9 11 mph 1018.6mb 82f 80f
4:20pm  -   -   -  9 11 mph 1018.6mb 82f 80f
3:50pm 3ft 8s 7s 9 11 mph 1018.8mb 82f 80f
3:20pm  -   -   -  9 11 mph 1018.8mb 83f 80f
2:50pm 3.5ft 8s 7s 7 9 mph 1018.9mb 82f 79f
2:20pm  -   -   -  9
mph
1019mb 82f 79f
1:50pm 3ft 8s 6s 9 11 mph 1019.2mb 83f 79f
1:20pm  -   -   -  7 9 mph 1019.7mb 83f 79f
12:50pm 3.5ft 8s 7s 4 7 mph 1020mb 83f 79f
12:20pm  -   -   -  4 7 mph 1020mb 83f 79f
11:50am 4ft 8s 7s 4
mph
1020mb 82f 78f
11:20am  -   -   -  4 7 mph 1020.1mb 81f 78f
10:50am 3.5ft 8s 7s 7
mph
1020mb 81f 78f
10:20am  -   -   -  4
mph
1020mb 81f 78f
9:50am 3.5ft 8s 7s 4
mph
1019.9mb 81f 78f
9:20am  -   -   -  4
mph
1019.8mb 80f 79f
8:50am 3.5ft 8s 7s 4
mph
1019.7mb 80f 79f
8:20am  -   -   -  4
mph
1019.6mb 80f 79f
7:50am 3.5ft 8s 7s 2
mph
1019.4mb 80f 79f
7:20am  -   -   -  4
mph
1019mb 80f 78f
6:50am 3.5ft 8s 7s 2 4 mph 1018.9mb 80f 78f
6:20am  -   -   -  4 7 mph 1018.5mb 80f 78f
5:50am 3.5ft 8s 7s 4 7 mph 1018.2mb 80f 78f
5:20am  -   -   -  4
mph
1017.9mb 80f 78f
4:50am 3.5ft 8s 7s 2
mph
1017.9mb 80f 78f
3:50am 3ft 9s 7s 4
mph
1017.7mb 80f 78f
3:20am  -   -   -  4 7 mph 1017.7mb 80f 78f
2:50am 3.5ft 8s 7s 4 7 mph 1017.9mb 80f 78f
2:20am  -   -   -  4 7 mph 1018.1mb 80f 78f
1:50am 3.5ft 8s 6s 4 7 mph 1018.3mb 80f 78f
1:20am  -   -   -  4 7 mph 1018.6mb 80f 78f
12:50am 3.5ft 9s 6s 7 9 mph 1018.6mb 80f 78f
12:20am  -   -   -  7 9 mph 1018.8mb 80f 78f
Sat 07/19 11:50pm 4ft 8s 6s 7 9 mph 1018.9mb 80f 78f
11:20pm  -   -   -  7 9 mph 1018.8mb 80f 79f
10:50pm 4.5ft 8s 7s 7
mph
1019.2mb 80f 79f
10:20pm  -   -   -  7
mph
1019.4mb 80f 79f
9:50pm 4ft 8s 6s 7 9 mph 1019.2mb 80f 79f
9:20pm  -   -   -  9 11 mph 1018.8mb 80f 79f
8:50pm 3.5ft 8s 6s 9
mph
1018.8mb 80f 79f
8:20pm  -   -   -  9
mph
1018.8mb 80f 79f
7:50pm 4.5ft 8s 6s 9 11 mph 1018.6mb 80f 79f
7:20pm  -   -   -  9 11 mph 1018.5mb 80f 79f
6:50pm 4ft 8s 6s 9 11 mph 1018.2mb 80f 79f
6:20pm  -   -   -  9 11 mph 1018.1mb 80f 78f
5:50pm 3.5ft 8s 6s 9 11 mph 1017.9mb 80f 78f
5:20pm  -   -   -  9 11 mph 1018.1mb 80f 78f
4:50pm 3.5ft 8s 5s 9 11 mph 1018.2mb 80f 78f
4:20pm  -   -   -  11 13 mph 1018.1mb 80f 78f
3:50pm 3.5ft 8s 5s 11 13 mph 1018.1mb 80f 78f
3:20pm  -   -   -  11 13 mph 1018.1mb 80f 78f
2:50pm 4ft 8s 5s 11 13 mph 1018.1mb 80f 78f
2:20pm  -   -   -  13 16 mph 1018.1mb 80f 78f
1:50pm 4ft 8s 5s 13 16 mph 1018.3mb 80f 78f
1:20pm  -   -   -  13 16 mph 1018.4mb 80f 78f
12:50pm 4.5ft 8s 5s 13 16 mph 1018.7mb 80f 78f
12:20pm  -   -   -  13 18 mph 1018.9mb 80f 78f
11:50am 4.5ft 8s 5s 13 16 mph 1018.8mb 80f 77f
11:20am  -   -   -  16 18 mph 1018.8mb 80f 78f
10:50am 4ft 8s 5s 16 18 mph 1018.9mb 80f 77f
10:20am  -   -   -  16 18 mph 1018.8mb 80f 77f
9:50am 4.5ft 8s 5s 18 20 mph 1018.8mb 80f 77f
9:20am  -   -   -  18 20 mph 1018.7mb 80f 77f
8:50am 4.5ft 8s 5s 18 20 mph 1018.5mb 80f 78f
8:20am  -   -   -  20 22 mph 1018.1mb 80f 77f
7:50am 4.5ft 8s 5s 18 22 mph 1017.9mb 80f 78f
7:20am  -   -   -  18 20 mph 1018.1mb 80f 78f
6:50am 5ft 8s 5s 20 22 mph 1017.7mb 80f 78f
6:20am  -   -   -  20 22 mph 1017.9mb 80f 78f
5:50am 5ft 6s 5s 20 22 mph 1017.9mb 80f 78f
5:20am  -   -   -  20 22 mph 1017.9mb 80f 78f
4:50am 5ft 6s 5s 20 22 mph 1017.8mb 80f 78f
4:20am  -   -   -  20 25 mph 1017.8mb 80f 78f
3:50am 5ft 6s 5s 20 22 mph 1017.9mb 80f 78f
3:20am  -   -   -  22 27 mph 1017.9mb 80f 77f
2:50am 5.5ft 5s 5s 20 25 mph 1018.3mb 80f 78f
2:20am  -   -   -  22 27 mph 1018.3mb 80f 78f
1:50am 5.5ft 5s 5s 22 27 mph 1018.3mb 80f 77f
1:20am  -   -   -  25 27 mph 1018.9mb 80f 77f
12:50am 5.5ft 6s 5s 22 27 mph 1019.6mb 80f 77f
12:20am  -   -   -  25 29 mph 1020mb 80f 78f
Fri 07/18 11:50pm 5.5ft 5s 5s 22 27 mph 1020.3mb 80f 78f
11:20pm  -   -   -  25 29 mph 1020.2mb 80f 78f
10:50pm 5.5ft 6s 5s 25 29 mph 1020.4mb 80f 79f
10:20pm  -   -   -  25 29 mph 1020.4mb 80f 78f